sensor_id;sensor_type;location;lat;lon;timestamp;P1;durP1;ratioP1;P2;durP2;ratioP2
52620;SDS011;38515;53.160;6.990;2023-08-21T00:00:17;719.17;;;659.35;;
52620;SDS011;38515;53.160;6.990;2023-08-21T00:02:43;780.63;;;710.53;;
52620;SDS011;38515;53.160;6.990;2023-08-21T00:05:09;808.38;;;735.92;;
52620;SDS011;38515;53.160;6.990;2023-08-21T00:07:35;792.38;;;721.35;;
52620;SDS011;38515;53.160;6.990;2023-08-21T00:10:00;796.40;;;725.33;;
52620;SDS011;38515;53.160;6.990;2023-08-21T00:12:26;766.72;;;698.25;;
52620;SDS011;38515;53.160;6.990;2023-08-21T00:14:52;786.35;;;717.22;;
52620;SDS011;38515;53.160;6.990;2023-08-21T00:17:18;772.10;;;704.22;;
52620;SDS011;38515;53.160;6.990;2023-08-21T00:19:44;805.42;;;732.80;;
52620;SDS011;38515;53.160;6.990;2023-08-21T00:22:10;767.22;;;699.42;;
52620;SDS011;38515;53.160;6.990;2023-08-21T00:24:35;726.45;;;667.47;;
52620;SDS011;38515;53.160;6.990;2023-08-21T00:27:01;677.85;;;623.55;;
52620;SDS011;38515;53.160;6.990;2023-08-21T00:29:28;641.55;;;590.80;;
52620;SDS011;38515;53.160;6.990;2023-08-21T00:31:55;742.17;;;677.17;;
52620;SDS011;38515;53.160;6.990;2023-08-21T00:34:20;693.35;;;637.65;;
52620;SDS011;38515;53.160;6.990;2023-08-21T00:36:46;813.95;;;741.75;;
52620;SDS011;38515;53.160;6.990;2023-08-21T00:39:12;805.33;;;732.97;;
52620;SDS011;38515;53.160;6.990;2023-08-21T00:41:38;731.15;;;669.15;;
52620;SDS011;38515;53.160;6.990;2023-08-21T00:44:04;748.45;;;681.83;;
52620;SDS011;38515;53.160;6.990;2023-08-21T00:46:30;742.45;;;677.45;;
52620;SDS011;38515;53.160;6.990;2023-08-21T00:48:57;778.25;;;706.03;;
52620;SDS011;38515;53.160;6.990;2023-08-21T00:51:23;714.92;;;650.88;;
52620;SDS011;38515;53.160;6.990;2023-08-21T00:53:49;770.88;;;701.20;;
52620;SDS011;38515;53.160;6.990;2023-08-21T00:56:15;731.83;;;667.08;;
52620;SDS011;38515;53.160;6.990;2023-08-21T00:58:41;762.45;;;693.65;;
52620;SDS011;38515;53.160;6.990;2023-08-21T01:01:08;733.63;;;669.55;;
52620;SDS011;38515;53.160;6.990;2023-08-21T01:03:34;734.00;;;669.53;;
52620;SDS011;38515;53.160;6.990;2023-08-21T01:06:00;699.38;;;638.03;;
52620;SDS011;38515;53.160;6.990;2023-08-21T01:08:35;674.45;;;618.75;;
52620;SDS011;38515;53.160;6.990;2023-08-21T01:14:03;785.58;;;712.30;;
52620;SDS011;38515;53.160;6.990;2023-08-21T01:16:37;742.65;;;677.25;;
52620;SDS011;38515;53.160;6.990;2023-08-21T01:19:04;745.17;;;678.45;;
52620;SDS011;38515;53.160;6.990;2023-08-21T01:21:50;762.97;;;694.75;;
52620;SDS011;38515;53.160;6.990;2023-08-21T01:24:19;685.53;;;629.65;;
52620;SDS011;38515;53.160;6.990;2023-08-21T01:26:45;746.50;;;680.33;;
52620;SDS011;38515;53.160;6.990;2023-08-21T01:29:11;691.60;;;632.33;;
52620;SDS011;38515;53.160;6.990;2023-08-21T01:31:36;771.22;;;700.33;;
52620;SDS011;38515;53.160;6.990;2023-08-21T01:34:05;744.55;;;678.63;;
52620;SDS011;38515;53.160;6.990;2023-08-21T01:36:34;725.70;;;663.55;;
52620;SDS011;38515;53.160;6.990;2023-08-21T01:39:00;683.40;;;624.90;;
52620;SDS011;38515;53.160;6.990;2023-08-21T01:41:26;791.63;;;719.08;;
52620;SDS011;38515;53.160;6.990;2023-08-21T01:43:52;774.53;;;703.83;;
52620;SDS011;38515;53.160;6.990;2023-08-21T01:46:18;760.03;;;692.97;;
52620;SDS011;38515;53.160;6.990;2023-08-21T01:48:44;770.40;;;702.15;;
52620;SDS011;38515;53.160;6.990;2023-08-21T01:51:09;770.42;;;701.28;;
52620;SDS011;38515;53.160;6.990;2023-08-21T01:53:35;779.38;;;712.20;;
52620;SDS011;38515;53.160;6.990;2023-08-21T01:56:04;644.38;;;593.45;;
52620;SDS011;38515;53.160;6.990;2023-08-21T01:58:29;772.35;;;702.42;;
52620;SDS011;38515;53.160;6.990;2023-08-21T02:00:55;772.85;;;700.85;;
52620;SDS011;38515;53.160;6.990;2023-08-21T02:03:21;736.63;;;671.97;;
52620;SDS011;38515;53.160;6.990;2023-08-21T02:05:47;823.42;;;747.10;;
52620;SDS011;38515;53.160;6.990;2023-08-21T02:08:13;693.10;;;634.85;;
52620;SDS011;38515;53.160;6.990;2023-08-21T02:10:51;780.15;;;708.80;;
52620;SDS011;38515;53.160;6.990;2023-08-21T02:13:17;784.45;;;713.35;;
52620;SDS011;38515;53.160;6.990;2023-08-21T02:15:44;708.88;;;648.47;;
52620;SDS011;38515;53.160;6.990;2023-08-21T02:18:10;678.05;;;621.05;;
52620;SDS011;38515;53.160;6.990;2023-08-21T02:20:36;792.13;;;719.05;;
52620;SDS011;38515;53.160;6.990;2023-08-21T02:23:01;634.50;;;583.70;;
52620;SDS011;38515;53.160;6.990;2023-08-21T02:25:27;782.13;;;710.05;;
52620;SDS011;38515;53.160;6.990;2023-08-21T02:27:55;761.58;;;695.42;;
52620;SDS011;38515;53.160;6.990;2023-08-21T02:30:21;723.17;;;661.40;;
52620;SDS011;38515;53.160;6.990;2023-08-21T02:32:50;750.78;;;685.15;;
52620;SDS011;38515;53.160;6.990;2023-08-21T02:35:17;742.10;;;678.25;;
52620;SDS011;38515;53.160;6.990;2023-08-21T02:37:43;742.92;;;679.42;;
52620;SDS011;38515;53.160;6.990;2023-08-21T02:40:09;734.55;;;671.72;;
52620;SDS011;38515;53.160;6.990;2023-08-21T02:42:35;692.20;;;636.63;;
52620;SDS011;38515;53.160;6.990;2023-08-21T02:45:01;781.05;;;712.60;;
52620;SDS011;38515;53.160;6.990;2023-08-21T02:47:34;712.97;;;650.92;;
52620;SDS011;38515;53.160;6.990;2023-08-21T02:50:04;690.78;;;634.30;;
52620;SDS011;38515;53.160;6.990;2023-08-21T02:52:31;770.97;;;704.40;;
52620;SDS011;38515;53.160;6.990;2023-08-21T02:54:58;660.78;;;606.05;;
52620;SDS011;38515;53.160;6.990;2023-08-21T02:57:24;793.17;;;720.85;;
52620;SDS011;38515;53.160;6.990;2023-08-21T02:59:51;710.75;;;650.92;;
52620;SDS011;38515;53.160;6.990;2023-08-21T03:02:18;774.70;;;707.30;;
52620;SDS011;38515;53.160;6.990;2023-08-21T03:04:44;766.65;;;698.40;;
52620;SDS011;38515;53.160;6.990;2023-08-21T03:07:10;765.88;;;698.08;;
52620;SDS011;38515;53.160;6.990;2023-08-21T03:09:36;744.85;;;680.75;;
52620;SDS011;38515;53.160;6.990;2023-08-21T03:12:05;657.47;;;603.17;;
52620;SDS011;38515;53.160;6.990;2023-08-21T03:14:32;728.70;;;664.30;;
52620;SDS011;38515;53.160;6.990;2023-08-21T03:16:59;721.42;;;658.50;;
52620;SDS011;38515;53.160;6.990;2023-08-21T03:19:24;718.90;;;656.42;;
52620;SDS011;38515;53.160;6.990;2023-08-21T03:21:50;697.60;;;636.38;;
52620;SDS011;38515;53.160;6.990;2023-08-21T03:24:17;743.67;;;677.55;;
52620;SDS011;38515;53.160;6.990;2023-08-21T03:26:43;739.58;;;675.85;;
52620;SDS011;38515;53.160;6.990;2023-08-21T03:29:09;717.60;;;656.72;;
52620;SDS011;38515;53.160;6.990;2023-08-21T03:31:35;764.67;;;696.47;;
52620;SDS011;38515;53.160;6.990;2023-08-21T03:34:01;791.47;;;720.53;;
52620;SDS011;38515;53.160;6.990;2023-08-21T03:36:27;692.53;;;634.25;;
52620;SDS011;38515;53.160;6.990;2023-08-21T03:39:03;740.10;;;677.30;;
52620;SDS011;38515;53.160;6.990;2023-08-21T03:41:31;711.33;;;652.22;;
52620;SDS011;38515;53.160;6.990;2023-08-21T03:43:57;710.97;;;650.40;;
52620;SDS011;38515;53.160;6.990;2023-08-21T03:46:23;769.72;;;702.00;;
52620;SDS011;38515;53.160;6.990;2023-08-21T03:48:49;721.63;;;660.90;;
52620;SDS011;38515;53.160;6.990;2023-08-21T03:51:16;682.03;;;626.35;;
52620;SDS011;38515;53.160;6.990;2023-08-21T03:53:41;678.38;;;621.72;;
52620;SDS011;38515;53.160;6.990;2023-08-21T03:56:07;749.47;;;684.15;;
52620;SDS011;38515;53.160;6.990;2023-08-21T03:58:33;754.63;;;690.70;;
52620;SDS011;38515;53.160;6.990;2023-08-21T04:01:00;756.33;;;691.92;;
52620;SDS011;38515;53.160;6.990;2023-08-21T04:03:26;772.53;;;706.40;;
52620;SDS011;38515;53.160;6.990;2023-08-21T04:05:55;753.50;;;688.53;;
52620;SDS011;38515;53.160;6.990;2023-08-21T04:08:22;703.28;;;645.25;;
52620;SDS011;38515;53.160;6.990;2023-08-21T04:10:48;672.97;;;618.75;;
52620;SDS011;38515;53.160;6.990;2023-08-21T04:13:14;677.13;;;623.30;;
52620;SDS011;38515;53.160;6.990;2023-08-21T04:15:44;733.85;;;673.20;;
52620;SDS011;38515;53.160;6.990;2023-08-21T04:18:10;757.70;;;691.17;;
52620;SDS011;38515;53.160;6.990;2023-08-21T04:20:37;776.30;;;709.25;;
52620;SDS011;38515;53.160;6.990;2023-08-21T04:23:03;780.72;;;713.17;;
52620;SDS011;38515;53.160;6.990;2023-08-21T04:25:29;712.47;;;653.88;;
52620;SDS011;38515;53.160;6.990;2023-08-21T04:27:55;786.63;;;718.40;;
52620;SDS011;38515;53.160;6.990;2023-08-21T04:30:20;742.10;;;679.28;;
52620;SDS011;38515;53.160;6.990;2023-08-21T04:32:47;767.72;;;700.88;;
52620;SDS011;38515;53.160;6.990;2023-08-21T04:35:13;737.90;;;674.88;;
52620;SDS011;38515;53.160;6.990;2023-08-21T04:37:43;765.97;;;699.90;;
52620;SDS011;38515;53.160;6.990;2023-08-21T04:40:11;799.70;;;728.75;;
52620;SDS011;38515;53.160;6.990;2023-08-21T04:42:37;774.72;;;706.58;;
52620;SDS011;38515;53.160;6.990;2023-08-21T04:45:03;730.55;;;669.05;;
52620;SDS011;38515;53.160;6.990;2023-08-21T04:47:31;774.25;;;708.78;;
52620;SDS011;38515;53.160;6.990;2023-08-21T04:49:57;664.60;;;611.22;;
52620;SDS011;38515;53.160;6.990;2023-08-21T04:52:23;818.88;;;742.35;;
52620;SDS011;38515;53.160;6.990;2023-08-21T04:54:50;786.05;;;716.15;;
52620;SDS011;38515;53.160;6.990;2023-08-21T04:57:16;800.22;;;727.15;;
52620;SDS011;38515;53.160;6.990;2023-08-21T04:59:43;801.90;;;728.83;;
52620;SDS011;38515;53.160;6.990;2023-08-21T05:02:09;810.28;;;736.10;;
52620;SDS011;38515;53.160;6.990;2023-08-21T05:04:36;782.38;;;713.10;;
52620;SDS011;38515;53.160;6.990;2023-08-21T05:07:02;817.00;;;740.25;;
52620;SDS011;38515;53.160;6.990;2023-08-21T05:09:29;828.67;;;752.28;;
52620;SDS011;38515;53.160;6.990;2023-08-21T05:11:56;661.33;;;607.00;;
52620;SDS011;38515;53.160;6.990;2023-08-21T05:14:22;760.35;;;694.53;;
52620;SDS011;38515;53.160;6.990;2023-08-21T05:16:48;813.65;;;739.17;;
52620;SDS011;38515;53.160;6.990;2023-08-21T05:19:14;819.47;;;743.13;;
52620;SDS011;38515;53.160;6.990;2023-08-21T05:21:40;742.65;;;678.88;;
52620;SDS011;38515;53.160;6.990;2023-08-21T05:24:06;824.75;;;751.30;;
52620;SDS011;38515;53.160;6.990;2023-08-21T05:26:32;770.42;;;702.55;;
52620;SDS011;38515;53.160;6.990;2023-08-21T05:28:58;749.05;;;685.47;;
52620;SDS011;38515;53.160;6.990;2023-08-21T05:31:24;683.17;;;628.75;;
52620;SDS011;38515;53.160;6.990;2023-08-21T05:33:50;756.00;;;690.55;;
52620;SDS011;38515;53.160;6.990;2023-08-21T05:36:15;772.47;;;706.25;;
52620;SDS011;38515;53.160;6.990;2023-08-21T05:38:41;787.92;;;720.42;;
52620;SDS011;38515;53.160;6.990;2023-08-21T05:41:07;790.92;;;720.15;;
52620;SDS011;38515;53.160;6.990;2023-08-21T05:43:33;706.55;;;646.92;;
52620;SDS011;38515;53.160;6.990;2023-08-21T05:45:59;730.63;;;666.00;;
52620;SDS011;38515;53.160;6.990;2023-08-21T05:48:25;749.58;;;684.83;;
52620;SDS011;38515;53.160;6.990;2023-08-21T05:50:51;772.50;;;705.40;;
52620;SDS011;38515;53.160;6.990;2023-08-21T05:53:18;778.92;;;704.95;;
52620;SDS011;38515;53.160;6.990;2023-08-21T05:55:44;805.75;;;729.30;;
52620;SDS011;38515;53.160;6.990;2023-08-21T05:58:10;811.40;;;735.00;;
52620;SDS011;38515;53.160;6.990;2023-08-21T06:00:37;784.60;;;711.85;;
52620;SDS011;38515;53.160;6.990;2023-08-21T06:03:03;731.75;;;666.03;;
52620;SDS011;38515;53.160;6.990;2023-08-21T06:05:29;744.80;;;676.80;;
52620;SDS011;38515;53.160;6.990;2023-08-21T06:07:55;818.92;;;744.50;;
52620;SDS011;38515;53.160;6.990;2023-08-21T06:10:21;823.80;;;747.33;;
52620;SDS011;38515;53.160;6.990;2023-08-21T06:12:47;701.97;;;642.40;;
52620;SDS011;38515;53.160;6.990;2023-08-21T06:15:14;832.33;;;753.40;;
52620;SDS011;38515;53.160;6.990;2023-08-21T06:17:40;836.33;;;757.78;;
52620;SDS011;38515;53.160;6.990;2023-08-21T06:20:07;745.22;;;681.95;;
52620;SDS011;38515;53.160;6.990;2023-08-21T06:22:36;742.03;;;679.15;;
52620;SDS011;38515;53.160;6.990;2023-08-21T06:25:03;734.67;;;671.88;;
52620;SDS011;38515;53.160;6.990;2023-08-21T06:27:29;763.55;;;698.22;;
52620;SDS011;38515;53.160;6.990;2023-08-21T06:29:55;846.42;;;773.17;;
52620;SDS011;38515;53.160;6.990;2023-08-21T06:32:21;863.90;;;784.17;;
52620;SDS011;38515;53.160;6.990;2023-08-21T06:34:47;835.92;;;760.17;;
52620;SDS011;38515;53.160;6.990;2023-08-21T06:37:13;828.15;;;749.95;;
52620;SDS011;38515;53.160;6.990;2023-08-21T06:39:39;810.15;;;742.65;;
52620;SDS011;38515;53.160;6.990;2023-08-21T06:42:05;729.72;;;671.78;;
52620;SDS011;38515;53.160;6.990;2023-08-21T06:44:31;753.63;;;691.00;;
52620;SDS011;38515;53.160;6.990;2023-08-21T06:46:57;755.55;;;692.90;;
52620;SDS011;38515;53.160;6.990;2023-08-21T06:49:22;792.33;;;726.38;;
52620;SDS011;38515;53.160;6.990;2023-08-21T06:51:49;796.30;;;731.67;;
52620;SDS011;38515;53.160;6.990;2023-08-21T06:54:15;745.72;;;687.85;;
52620;SDS011;38515;53.160;6.990;2023-08-21T06:56:41;795.75;;;730.25;;
52620;SDS011;38515;53.160;6.990;2023-08-21T06:59:07;783.85;;;722.95;;
52620;SDS011;38515;53.160;6.990;2023-08-21T07:01:32;788.13;;;726.90;;
52620;SDS011;38515;53.160;6.990;2023-08-21T07:03:58;783.25;;;722.72;;
52620;SDS011;38515;53.160;6.990;2023-08-21T07:06:24;793.30;;;731.15;;
52620;SDS011;38515;53.160;6.990;2023-08-21T07:08:53;780.22;;;718.20;;
52620;SDS011;38515;53.160;6.990;2023-08-21T07:11:19;800.65;;;737.22;;
52620;SDS011;38515;53.160;6.990;2023-08-21T07:13:45;700.00;;;644.40;;
52620;SDS011;38515;53.160;6.990;2023-08-21T07:16:13;554.20;;;513.15;;
52620;SDS011;38515;53.160;6.990;2023-08-21T07:18:39;556.92;;;512.63;;
52620;SDS011;38515;53.160;6.990;2023-08-21T07:21:05;501.30;;;463.00;;
52620;SDS011;38515;53.160;6.990;2023-08-21T07:23:31;485.33;;;449.85;;
52620;SDS011;38515;53.160;6.990;2023-08-21T07:25:58;505.80;;;466.77;;
52620;SDS011;38515;53.160;6.990;2023-08-21T07:28:25;466.27;;;431.35;;
52620;SDS011;38515;53.160;6.990;2023-08-21T07:30:54;439.00;;;406.95;;
52620;SDS011;38515;53.160;6.990;2023-08-21T07:33:22;419.48;;;388.98;;
52620;SDS011;38515;53.160;6.990;2023-08-21T07:35:48;540.83;;;498.05;;
52620;SDS011;38515;53.160;6.990;2023-08-21T07:38:23;489.02;;;453.70;;
52620;SDS011;38515;53.160;6.990;2023-08-21T07:40:48;451.83;;;419.85;;
52620;SDS011;38515;53.160;6.990;2023-08-21T07:43:16;506.67;;;467.25;;
52620;SDS011;38515;53.160;6.990;2023-08-21T07:45:42;435.08;;;404.25;;
52620;SDS011;38515;53.160;6.990;2023-08-21T07:48:08;474.13;;;438.52;;
52620;SDS011;38515;53.160;6.990;2023-08-21T07:50:34;478.40;;;444.08;;
52620;SDS011;38515;53.160;6.990;2023-08-21T07:53:00;381.42;;;354.92;;
52620;SDS011;38515;53.160;6.990;2023-08-21T07:55:26;500.65;;;462.73;;
52620;SDS011;38515;53.160;6.990;2023-08-21T07:57:51;426.17;;;395.75;;
52620;SDS011;38515;53.160;6.990;2023-08-21T08:00:17;435.75;;;405.95;;
52620;SDS011;38515;53.160;6.990;2023-08-21T08:02:44;550.95;;;510.27;;
52620;SDS011;38515;53.160;6.990;2023-08-21T08:05:10;499.08;;;462.40;;
52620;SDS011;38515;53.160;6.990;2023-08-21T08:07:35;447.35;;;418.02;;
52620;SDS011;38515;53.160;6.990;2023-08-21T08:10:01;442.33;;;411.52;;
52620;SDS011;38515;53.160;6.990;2023-08-21T08:12:27;427.65;;;402.08;;
52620;SDS011;38515;53.160;6.990;2023-08-21T08:14:53;459.00;;;429.40;;
52620;SDS011;38515;53.160;6.990;2023-08-21T08:17:19;364.17;;;341.10;;
52620;SDS011;38515;53.160;6.990;2023-08-21T08:19:45;354.23;;;332.40;;
52620;SDS011;38515;53.160;6.990;2023-08-21T08:22:10;401.52;;;374.77;;
52620;SDS011;38515;53.160;6.990;2023-08-21T08:24:36;382.58;;;356.77;;
52620;SDS011;38515;53.160;6.990;2023-08-21T08:27:02;520.97;;;480.48;;
52620;SDS011;38515;53.160;6.990;2023-08-21T08:29:28;310.67;;;292.85;;
52620;SDS011;38515;53.160;6.990;2023-08-21T08:31:54;464.83;;;430.30;;
52620;SDS011;38515;53.160;6.990;2023-08-21T08:34:20;286.08;;;267.88;;
52620;SDS011;38515;53.160;6.990;2023-08-21T08:36:46;332.48;;;312.70;;
52620;SDS011;38515;53.160;6.990;2023-08-21T08:39:12;199.07;;;187.88;;
52620;SDS011;38515;53.160;6.990;2023-08-21T08:41:39;171.45;;;161.88;;
52620;SDS011;38515;53.160;6.990;2023-08-21T08:44:38;188.50;;;178.75;;
52620;SDS011;38515;53.160;6.990;2023-08-21T08:47:06;123.25;;;117.57;;
52620;SDS011;38515;53.160;6.990;2023-08-21T08:49:36;215.50;;;204.15;;
52620;SDS011;38515;53.160;6.990;2023-08-21T08:52:03;146.93;;;139.63;;
52620;SDS011;38515;53.160;6.990;2023-08-21T08:54:30;147.45;;;139.93;;
52620;SDS011;38515;53.160;6.990;2023-08-21T08:56:57;234.00;;;221.45;;
52620;SDS011;38515;53.160;6.990;2023-08-21T08:59:23;160.57;;;152.30;;
52620;SDS011;38515;53.160;6.990;2023-08-21T09:01:49;145.75;;;138.50;;
52620;SDS011;38515;53.160;6.990;2023-08-21T09:04:15;283.38;;;266.38;;
52620;SDS011;38515;53.160;6.990;2023-08-21T09:06:41;248.57;;;235.07;;
52620;SDS011;38515;53.160;6.990;2023-08-21T09:09:07;275.02;;;259.00;;
52620;SDS011;38515;53.160;6.990;2023-08-21T09:11:42;232.15;;;219.73;;
52620;SDS011;38515;53.160;6.990;2023-08-21T09:14:09;179.00;;;170.10;;
52620;SDS011;38515;53.160;6.990;2023-08-21T09:16:36;181.52;;;172.20;;
52620;SDS011;38515;53.160;6.990;2023-08-21T09:19:01;162.60;;;154.90;;
52620;SDS011;38515;53.160;6.990;2023-08-21T09:21:27;168.73;;;160.50;;
52620;SDS011;38515;53.160;6.990;2023-08-21T09:23:58;195.65;;;184.93;;
52620;SDS011;38515;53.160;6.990;2023-08-21T09:26:31;232.25;;;217.95;;
52620;SDS011;38515;53.160;6.990;2023-08-21T09:28:58;197.52;;;187.52;;
52620;SDS011;38515;53.160;6.990;2023-08-21T09:31:31;176.02;;;166.80;;
52620;SDS011;38515;53.160;6.990;2023-08-21T09:33:59;262.50;;;246.32;;
52620;SDS011;38515;53.160;6.990;2023-08-21T09:36:30;138.57;;;132.45;;
52620;SDS011;38515;53.160;6.990;2023-08-21T09:38:56;219.00;;;206.90;;
52620;SDS011;38515;53.160;6.990;2023-08-21T09:41:23;141.38;;;133.45;;
52620;SDS011;38515;53.160;6.990;2023-08-21T09:43:49;127.28;;;121.50;;
52620;SDS011;38515;53.160;6.990;2023-08-21T09:46:15;162.68;;;155.27;;
52620;SDS011;38515;53.160;6.990;2023-08-21T09:48:46;174.95;;;165.73;;
52620;SDS011;38515;53.160;6.990;2023-08-21T09:51:13;150.55;;;143.68;;
52620;SDS011;38515;53.160;6.990;2023-08-21T09:53:39;166.52;;;159.00;;
52620;SDS011;38515;53.160;6.990;2023-08-21T09:56:06;130.20;;;124.13;;
52620;SDS011;38515;53.160;6.990;2023-08-21T09:58:34;258.50;;;243.55;;
52620;SDS011;38515;53.160;6.990;2023-08-21T10:01:07;118.93;;;113.20;;
52620;SDS011;38515;53.160;6.990;2023-08-21T10:03:39;131.45;;;125.05;;
52620;SDS011;38515;53.160;6.990;2023-08-21T10:06:12;108.43;;;103.30;;
52620;SDS011;38515;53.160;6.990;2023-08-21T10:08:44;235.02;;;221.82;;
52620;SDS011;38515;53.160;6.990;2023-08-21T10:11:11;153.32;;;145.75;;
52620;SDS011;38515;53.160;6.990;2023-08-21T10:13:38;153.55;;;146.73;;
52620;SDS011;38515;53.160;6.990;2023-08-21T10:16:05;145.70;;;138.95;;
52620;SDS011;38515;53.160;6.990;2023-08-21T10:18:33;144.98;;;138.63;;
52620;SDS011;38515;53.160;6.990;2023-08-21T10:21:13;136.02;;;130.13;;
52620;SDS011;38515;53.160;6.990;2023-08-21T10:23:41;144.45;;;137.48;;
52620;SDS011;38515;53.160;6.990;2023-08-21T10:26:09;143.25;;;136.45;;
52620;SDS011;38515;53.160;6.990;2023-08-21T10:31:31;129.60;;;124.07;;
52620;SDS011;38515;53.160;6.990;2023-08-21T10:34:03;112.18;;;106.85;;
52620;SDS011;38515;53.160;6.990;2023-08-21T10:39:15;120.32;;;114.50;;
52620;SDS011;38515;53.160;6.990;2023-08-21T10:41:52;153.95;;;147.18;;
52620;SDS011;38515;53.160;6.990;2023-08-21T10:44:33;154.75;;;147.32;;
52620;SDS011;38515;53.160;6.990;2023-08-21T10:49:55;304.25;;;289.50;;
52620;SDS011;38515;53.160;6.990;2023-08-21T10:52:24;264.30;;;250.57;;
52620;SDS011;38515;53.160;6.990;2023-08-21T10:55:00;173.27;;;164.60;;
52620;SDS011;38515;53.160;6.990;2023-08-21T10:57:27;221.50;;;210.98;;
52620;SDS011;38515;53.160;6.990;2023-08-21T10:59:59;343.45;;;326.80;;
52620;SDS011;38515;53.160;6.990;2023-08-21T11:02:37;240.50;;;228.38;;
52620;SDS011;38515;53.160;6.990;2023-08-21T11:05:09;356.88;;;337.83;;
52620;SDS011;38515;53.160;6.990;2023-08-21T11:07:45;252.35;;;238.65;;
52620;SDS011;38515;53.160;6.990;2023-08-21T11:10:16;361.73;;;341.83;;
52620;SDS011;38515;53.160;6.990;2023-08-21T11:13:01;307.42;;;291.50;;
52620;SDS011;38515;53.160;6.990;2023-08-21T11:15:31;278.35;;;264.30;;
52620;SDS011;38515;53.160;6.990;2023-08-21T11:17:59;307.10;;;291.05;;
52620;SDS011;38515;53.160;6.990;2023-08-21T11:20:30;298.95;;;283.42;;
52620;SDS011;38515;53.160;6.990;2023-08-21T11:23:00;232.38;;;220.10;;
52620;SDS011;38515;53.160;6.990;2023-08-21T11:25:28;266.63;;;252.55;;
52620;SDS011;38515;53.160;6.990;2023-08-21T11:27:55;318.48;;;302.33;;
52620;SDS011;38515;53.160;6.990;2023-08-21T11:30:24;219.45;;;209.32;;
52620;SDS011;38515;53.160;6.990;2023-08-21T11:35:38;286.00;;;270.80;;
52620;SDS011;38515;53.160;6.990;2023-08-21T11:38:04;379.52;;;358.55;;
52620;SDS011;38515;53.160;6.990;2023-08-21T11:40:34;225.90;;;214.50;;
52620;SDS011;38515;53.160;6.990;2023-08-21T11:43:00;263.20;;;249.30;;
52620;SDS011;38515;53.160;6.990;2023-08-21T11:45:27;320.40;;;304.02;;
52620;SDS011;38515;53.160;6.990;2023-08-21T11:47:55;258.17;;;245.93;;
52620;SDS011;38515;53.160;6.990;2023-08-21T11:50:23;296.77;;;280.90;;
52620;SDS011;38515;53.160;6.990;2023-08-21T11:52:51;368.63;;;348.40;;
52620;SDS011;38515;53.160;6.990;2023-08-21T11:55:17;322.92;;;306.08;;
52620;SDS011;38515;53.160;6.990;2023-08-21T11:57:50;200.05;;;189.93;;
52620;SDS011;38515;53.160;6.990;2023-08-21T12:00:17;255.05;;;241.25;;
52620;SDS011;38515;53.160;6.990;2023-08-21T12:02:53;348.67;;;326.40;;
52620;SDS011;38515;53.160;6.990;2023-08-21T12:05:23;390.65;;;367.83;;
52620;SDS011;38515;53.160;6.990;2023-08-21T12:07:49;375.42;;;353.08;;
52620;SDS011;38515;53.160;6.990;2023-08-21T12:10:22;322.25;;;304.92;;
52620;SDS011;38515;53.160;6.990;2023-08-21T12:12:52;324.23;;;307.13;;
52620;SDS011;38515;53.160;6.990;2023-08-21T12:15:18;392.48;;;370.15;;
52620;SDS011;38515;53.160;6.990;2023-08-21T12:17:44;439.83;;;411.92;;
52620;SDS011;38515;53.160;6.990;2023-08-21T12:20:10;307.67;;;289.67;;
52620;SDS011;38515;53.160;6.990;2023-08-21T12:22:39;407.70;;;383.85;;
52620;SDS011;38515;53.160;6.990;2023-08-21T12:25:07;460.95;;;432.20;;
52620;SDS011;38515;53.160;6.990;2023-08-21T12:27:34;145.50;;;135.95;;
52620;SDS011;38515;53.160;6.990;2023-08-21T12:30:00;402.50;;;376.63;;
52620;SDS011;38515;53.160;6.990;2023-08-21T12:32:25;424.02;;;399.60;;
52620;SDS011;38515;53.160;6.990;2023-08-21T12:34:51;429.63;;;403.63;;
52620;SDS011;38515;53.160;6.990;2023-08-21T12:37:20;501.52;;;470.55;;
52620;SDS011;38515;53.160;6.990;2023-08-21T12:39:46;390.88;;;368.73;;
52620;SDS011;38515;53.160;6.990;2023-08-21T12:42:11;359.70;;;340.90;;
52620;SDS011;38515;53.160;6.990;2023-08-21T12:44:37;311.25;;;294.48;;
52620;SDS011;38515;53.160;6.990;2023-08-21T12:47:03;458.55;;;429.38;;
52620;SDS011;38515;53.160;6.990;2023-08-21T12:49:29;266.45;;;253.82;;
52620;SDS011;38515;53.160;6.990;2023-08-21T12:51:55;291.75;;;277.58;;
52620;SDS011;38515;53.160;6.990;2023-08-21T12:54:21;419.25;;;393.35;;
52620;SDS011;38515;53.160;6.990;2023-08-21T12:56:47;250.38;;;237.85;;
52620;SDS011;38515;53.160;6.990;2023-08-21T12:59:13;318.75;;;300.92;;
52620;SDS011;38515;53.160;6.990;2023-08-21T13:01:39;246.07;;;233.20;;
52620;SDS011;38515;53.160;6.990;2023-08-21T13:04:05;279.77;;;264.52;;
52620;SDS011;38515;53.160;6.990;2023-08-21T13:06:31;298.85;;;281.67;;
52620;SDS011;38515;53.160;6.990;2023-08-21T13:08:57;477.13;;;444.83;;
52620;SDS011;38515;53.160;6.990;2023-08-21T13:11:23;339.63;;;321.02;;
52620;SDS011;38515;53.160;6.990;2023-08-21T13:13:49;286.50;;;271.48;;
52620;SDS011;38515;53.160;6.990;2023-08-21T13:16:14;219.25;;;208.35;;
52620;SDS011;38515;53.160;6.990;2023-08-21T13:18:40;380.73;;;359.75;;
52620;SDS011;38515;53.160;6.990;2023-08-21T13:21:06;317.73;;;300.20;;
52620;SDS011;38515;53.160;6.990;2023-08-21T13:23:32;270.92;;;256.23;;
52620;SDS011;38515;53.160;6.990;2023-08-21T13:25:59;238.80;;;226.43;;
52620;SDS011;38515;53.160;6.990;2023-08-21T13:28:26;423.25;;;400.00;;
52620;SDS011;38515;53.160;6.990;2023-08-21T13:30:52;266.75;;;252.63;;
52620;SDS011;38515;53.160;6.990;2023-08-21T13:33:18;244.00;;;230.05;;
52620;SDS011;38515;53.160;6.990;2023-08-21T13:35:44;342.42;;;323.73;;
52620;SDS011;38515;53.160;6.990;2023-08-21T13:38:11;346.42;;;328.20;;
52620;SDS011;38515;53.160;6.990;2023-08-21T13:40:38;386.77;;;366.05;;
52620;SDS011;38515;53.160;6.990;2023-08-21T13:43:05;390.20;;;368.63;;
52620;SDS011;38515;53.160;6.990;2023-08-21T13:45:32;291.95;;;276.08;;
52620;SDS011;38515;53.160;6.990;2023-08-21T13:47:58;329.85;;;310.92;;
52620;SDS011;38515;53.160;6.990;2023-08-21T13:50:25;289.88;;;274.40;;
52620;SDS011;38515;53.160;6.990;2023-08-21T13:52:51;198.98;;;189.50;;
52620;SDS011;38515;53.160;6.990;2023-08-21T13:55:16;409.85;;;386.23;;
52620;SDS011;38515;53.160;6.990;2023-08-21T13:57:43;289.52;;;274.67;;
52620;SDS011;38515;53.160;6.990;2023-08-21T14:00:09;219.85;;;209.23;;
52620;SDS011;38515;53.160;6.990;2023-08-21T14:02:39;201.18;;;191.63;;
52620;SDS011;38515;53.160;6.990;2023-08-21T14:05:07;194.85;;;185.55;;
52620;SDS011;38515;53.160;6.990;2023-08-21T14:07:33;104.60;;;99.53;;
52620;SDS011;38515;53.160;6.990;2023-08-21T14:10:00;106.63;;;100.70;;